sensor_id;sensor_type;location;lat;lon;timestamp;P1;durP1;ratioP1;P2;durP2;ratioP2
75218;SDS011;63801;49.414;19.474;2023-03-25T00:00:28;15.10;;;7.78;;
75218;SDS011;63801;49.414;19.474;2023-03-25T00:02:29;13.57;;;8.43;;
75218;SDS011;63801;49.414;19.474;2023-03-25T00:04:29;14.77;;;8.27;;
75218;SDS011;63801;49.414;19.474;2023-03-25T00:06:30;13.05;;;8.38;;
75218;SDS011;63801;49.414;19.474;2023-03-25T00:08:33;13.70;;;8.48;;
75218;SDS011;63801;49.414;19.474;2023-03-25T00:10:33;15.07;;;9.20;;
75218;SDS011;63801;49.414;19.474;2023-03-25T00:12:34;17.52;;;8.98;;
75218;SDS011;63801;49.414;19.474;2023-03-25T00:14:34;13.30;;;8.18;;
75218;SDS011;63801;49.414;19.474;2023-03-25T00:16:35;14.13;;;8.45;;
75218;SDS011;63801;49.414;19.474;2023-03-25T00:18:35;13.80;;;8.65;;
75218;SDS011;63801;49.414;19.474;2023-03-25T00:20:36;13.38;;;7.90;;
75218;SDS011;63801;49.414;19.474;2023-03-25T00:22:39;13.98;;;8.40;;
75218;SDS011;63801;49.414;19.474;2023-03-25T00:24:42;14.77;;;8.13;;
75218;SDS011;63801;49.414;19.474;2023-03-25T00:26:43;15.73;;;8.20;;
75218;SDS011;63801;49.414;19.474;2023-03-25T00:28:45;10.30;;;6.90;;
75218;SDS011;63801;49.414;19.474;2023-03-25T00:30:45;14.10;;;7.80;;
75218;SDS011;63801;49.414;19.474;2023-03-25T00:32:45;12.50;;;7.65;;
75218;SDS011;63801;49.414;19.474;2023-03-25T00:34:48;13.52;;;8.07;;
75218;SDS011;63801;49.414;19.474;2023-03-25T00:36:48;12.80;;;8.15;;
75218;SDS011;63801;49.414;19.474;2023-03-25T00:38:49;15.60;;;8.10;;
75218;SDS011;63801;49.414;19.474;2023-03-25T00:40:50;14.07;;;7.85;;
75218;SDS011;63801;49.414;19.474;2023-03-25T00:42:52;12.90;;;7.80;;
75218;SDS011;63801;49.414;19.474;2023-03-25T00:44:52;13.98;;;8.07;;
75218;SDS011;63801;49.414;19.474;2023-03-25T00:46:53;13.60;;;7.82;;
75218;SDS011;63801;49.414;19.474;2023-03-25T00:48:53;13.98;;;8.43;;
75218;SDS011;63801;49.414;19.474;2023-03-25T00:50:55;14.38;;;7.97;;
75218;SDS011;63801;49.414;19.474;2023-03-25T00:52:55;11.93;;;7.80;;
75218;SDS011;63801;49.414;19.474;2023-03-25T00:54:55;12.73;;;7.07;;
75218;SDS011;63801;49.414;19.474;2023-03-25T00:56:55;11.77;;;7.00;;
75218;SDS011;63801;49.414;19.474;2023-03-25T00:58:56;10.75;;;6.68;;
75218;SDS011;63801;49.414;19.474;2023-03-25T01:00:56;13.35;;;6.75;;
75218;SDS011;63801;49.414;19.474;2023-03-25T01:02:57;10.73;;;6.07;;
75218;SDS011;63801;49.414;19.474;2023-03-25T01:04:57;9.88;;;6.00;;
75218;SDS011;63801;49.414;19.474;2023-03-25T01:06:59;13.02;;;6.90;;
75218;SDS011;63801;49.414;19.474;2023-03-25T01:09:01;9.75;;;5.78;;
75218;SDS011;63801;49.414;19.474;2023-03-25T01:11:05;9.65;;;5.65;;
75218;SDS011;63801;49.414;19.474;2023-03-25T01:13:05;8.93;;;5.78;;
75218;SDS011;63801;49.414;19.474;2023-03-25T01:15:06;9.45;;;5.45;;
75218;SDS011;63801;49.414;19.474;2023-03-25T01:17:09;10.05;;;6.18;;
75218;SDS011;63801;49.414;19.474;2023-03-25T01:19:10;10.15;;;6.07;;
75218;SDS011;63801;49.414;19.474;2023-03-25T01:21:11;10.85;;;6.15;;
75218;SDS011;63801;49.414;19.474;2023-03-25T01:23:11;10.85;;;5.85;;
75218;SDS011;63801;49.414;19.474;2023-03-25T01:25:12;12.73;;;5.65;;
75218;SDS011;63801;49.414;19.474;2023-03-25T01:27:12;8.75;;;5.55;;
75218;SDS011;63801;49.414;19.474;2023-03-25T01:29:14;9.70;;;5.82;;
75218;SDS011;63801;49.414;19.474;2023-03-25T01:31:16;11.35;;;6.53;;
75218;SDS011;63801;49.414;19.474;2023-03-25T01:33:16;11.30;;;7.00;;
75218;SDS011;63801;49.414;19.474;2023-03-25T01:35:16;10.90;;;7.22;;
75218;SDS011;63801;49.414;19.474;2023-03-25T01:37:17;11.82;;;7.28;;
75218;SDS011;63801;49.414;19.474;2023-03-25T01:39:17;12.75;;;7.57;;
75218;SDS011;63801;49.414;19.474;2023-03-25T01:41:18;16.40;;;6.88;;
75218;SDS011;63801;49.414;19.474;2023-03-25T01:43:19;10.90;;;6.90;;
75218;SDS011;63801;49.414;19.474;2023-03-25T01:47:24;11.00;;;6.60;;
75218;SDS011;63801;49.414;19.474;2023-03-25T01:51:38;10.15;;;6.72;;
75218;SDS011;63801;49.414;19.474;2023-03-25T01:53:43;10.73;;;6.57;;
75218;SDS011;63801;49.414;19.474;2023-03-25T01:55:43;10.60;;;6.77;;
75218;SDS011;63801;49.414;19.474;2023-03-25T01:57:44;10.50;;;6.70;;
75218;SDS011;63801;49.414;19.474;2023-03-25T01:59:47;13.23;;;7.40;;
75218;SDS011;63801;49.414;19.474;2023-03-25T02:01:49;11.20;;;7.18;;
75218;SDS011;63801;49.414;19.474;2023-03-25T02:03:52;10.30;;;5.97;;
75218;SDS011;63801;49.414;19.474;2023-03-25T02:06:02;12.30;;;6.72;;
75218;SDS011;63801;49.414;19.474;2023-03-25T02:08:06;11.45;;;5.93;;
75218;SDS011;63801;49.414;19.474;2023-03-25T02:10:09;10.98;;;6.50;;
75218;SDS011;63801;49.414;19.474;2023-03-25T02:12:11;11.45;;;6.50;;
75218;SDS011;63801;49.414;19.474;2023-03-25T02:14:12;10.45;;;6.05;;
75218;SDS011;63801;49.414;19.474;2023-03-25T02:18:46;9.73;;;5.85;;
75218;SDS011;63801;49.414;19.474;2023-03-25T02:21:02;10.82;;;6.57;;
75218;SDS011;63801;49.414;19.474;2023-03-25T02:37:43;10.68;;;6.53;;
75218;SDS011;63801;49.414;19.474;2023-03-25T02:39:54;10.93;;;6.65;;
75218;SDS011;63801;49.414;19.474;2023-03-25T02:42:17;12.45;;;6.82;;
75218;SDS011;63801;49.414;19.474;2023-03-25T02:44:34;12.20;;;6.82;;
75218;SDS011;63801;49.414;19.474;2023-03-25T02:46:40;11.27;;;6.93;;
75218;SDS011;63801;49.414;19.474;2023-03-25T02:50:51;11.75;;;6.82;;
75218;SDS011;63801;49.414;19.474;2023-03-25T02:52:56;11.93;;;7.18;;
75218;SDS011;63801;49.414;19.474;2023-03-25T02:55:00;12.95;;;6.85;;
75218;SDS011;63801;49.414;19.474;2023-03-25T02:57:04;13.57;;;7.18;;
75218;SDS011;63801;49.414;19.474;2023-03-25T03:01:08;10.70;;;6.55;;
75218;SDS011;63801;49.414;19.474;2023-03-25T03:03:09;12.20;;;7.22;;
75218;SDS011;63801;49.414;19.474;2023-03-25T03:07:50;13.45;;;7.20;;
75218;SDS011;63801;49.414;19.474;2023-03-25T03:13:07;12.77;;;7.00;;
75218;SDS011;63801;49.414;19.474;2023-03-25T03:17:41;15.75;;;8.45;;
75218;SDS011;63801;49.414;19.474;2023-03-25T03:21:55;14.55;;;8.35;;
75218;SDS011;63801;49.414;19.474;2023-03-25T03:26:11;14.38;;;8.68;;
75218;SDS011;63801;49.414;19.474;2023-03-25T03:28:17;15.25;;;8.80;;
75218;SDS011;63801;49.414;19.474;2023-03-25T03:35:01;14.35;;;9.57;;
75218;SDS011;63801;49.414;19.474;2023-03-25T03:37:07;15.10;;;9.32;;
75218;SDS011;63801;49.414;19.474;2023-03-25T03:39:16;17.58;;;9.32;;
75218;SDS011;63801;49.414;19.474;2023-03-25T03:41:22;18.58;;;9.18;;
75218;SDS011;63801;49.414;19.474;2023-03-25T03:45:56;17.38;;;9.73;;
75218;SDS011;63801;49.414;19.474;2023-03-25T03:48:00;19.52;;;10.15;;
75218;SDS011;63801;49.414;19.474;2023-03-25T03:50:15;20.05;;;10.52;;
75218;SDS011;63801;49.414;19.474;2023-03-25T03:52:32;17.30;;;9.95;;
75218;SDS011;63801;49.414;19.474;2023-03-25T03:55:23;20.23;;;10.70;;
75218;SDS011;63801;49.414;19.474;2023-03-25T03:57:27;21.13;;;11.45;;
75218;SDS011;63801;49.414;19.474;2023-03-25T03:59:41;18.40;;;10.23;;
75218;SDS011;63801;49.414;19.474;2023-03-25T04:01:46;17.27;;;9.45;;
75218;SDS011;63801;49.414;19.474;2023-03-25T04:06:29;20.83;;;10.10;;
75218;SDS011;63801;49.414;19.474;2023-03-25T04:08:39;19.02;;;10.63;;
75218;SDS011;63801;49.414;19.474;2023-03-25T04:10:51;21.58;;;10.70;;
75218;SDS011;63801;49.414;19.474;2023-03-25T04:13:01;17.52;;;10.05;;
75218;SDS011;63801;49.414;19.474;2023-03-25T04:15:05;20.23;;;9.98;;
75218;SDS011;63801;49.414;19.474;2023-03-25T04:17:07;15.43;;;9.15;;
75218;SDS011;63801;49.414;19.474;2023-03-25T04:19:07;15.68;;;8.90;;
75218;SDS011;63801;49.414;19.474;2023-03-25T04:21:08;14.30;;;8.13;;
75218;SDS011;63801;49.414;19.474;2023-03-25T04:23:09;14.10;;;8.55;;
75218;SDS011;63801;49.414;19.474;2023-03-25T04:25:15;16.25;;;9.32;;
75218;SDS011;63801;49.414;19.474;2023-03-25T04:27:17;13.85;;;8.15;;
75218;SDS011;63801;49.414;19.474;2023-03-25T04:29:18;13.98;;;8.80;;
75218;SDS011;63801;49.414;19.474;2023-03-25T04:31:19;15.80;;;8.80;;
75218;SDS011;63801;49.414;19.474;2023-03-25T04:33:20;14.80;;;8.02;;
75218;SDS011;63801;49.414;19.474;2023-03-25T04:35:21;13.95;;;7.88;;
75218;SDS011;63801;49.414;19.474;2023-03-25T04:37:25;14.30;;;7.65;;
75218;SDS011;63801;49.414;19.474;2023-03-25T04:39:26;11.38;;;6.93;;
75218;SDS011;63801;49.414;19.474;2023-03-25T04:41:28;12.80;;;6.88;;
75218;SDS011;63801;49.414;19.474;2023-03-25T04:43:28;13.02;;;6.90;;
75218;SDS011;63801;49.414;19.474;2023-03-25T04:45:29;12.27;;;6.60;;
75218;SDS011;63801;49.414;19.474;2023-03-25T04:47:29;13.20;;;7.22;;
75218;SDS011;63801;49.414;19.474;2023-03-25T04:49:30;11.60;;;6.88;;
75218;SDS011;63801;49.414;19.474;2023-03-25T04:51:31;12.05;;;6.65;;
75218;SDS011;63801;49.414;19.474;2023-03-25T04:53:31;12.10;;;6.50;;
75218;SDS011;63801;49.414;19.474;2023-03-25T04:55:32;11.77;;;5.85;;
75218;SDS011;63801;49.414;19.474;2023-03-25T04:57:33;10.38;;;5.78;;
75218;SDS011;63801;49.414;19.474;2023-03-25T04:59:33;10.90;;;6.15;;
75218;SDS011;63801;49.414;19.474;2023-03-25T05:01:35;11.35;;;5.68;;
75218;SDS011;63801;49.414;19.474;2023-03-25T05:03:41;8.93;;;5.32;;
75218;SDS011;63801;49.414;19.474;2023-03-25T05:05:41;11.07;;;6.03;;
75218;SDS011;63801;49.414;19.474;2023-03-25T05:07:41;9.40;;;5.70;;
75218;SDS011;63801;49.414;19.474;2023-03-25T05:09:44;9.80;;;5.25;;
75218;SDS011;63801;49.414;19.474;2023-03-25T05:11:44;7.63;;;4.53;;
75218;SDS011;63801;49.414;19.474;2023-03-25T05:13:45;8.18;;;4.25;;
75218;SDS011;63801;49.414;19.474;2023-03-25T05:15:46;7.93;;;3.80;;
75218;SDS011;63801;49.414;19.474;2023-03-25T05:17:46;13.80;;;6.30;;
75218;SDS011;63801;49.414;19.474;2023-03-25T05:19:46;7.38;;;4.03;;
75218;SDS011;63801;49.414;19.474;2023-03-25T05:21:47;6.55;;;3.60;;
75218;SDS011;63801;49.414;19.474;2023-03-25T05:23:47;6.45;;;3.97;;
75218;SDS011;63801;49.414;19.474;2023-03-25T05:25:48;6.93;;;3.75;;
75218;SDS011;63801;49.414;19.474;2023-03-25T05:27:50;5.97;;;4.07;;
75218;SDS011;63801;49.414;19.474;2023-03-25T05:29:50;8.27;;;4.72;;
75218;SDS011;63801;49.414;19.474;2023-03-25T05:31:50;9.20;;;4.85;;
75218;SDS011;63801;49.414;19.474;2023-03-25T05:33:51;8.40;;;4.15;;
75218;SDS011;63801;49.414;19.474;2023-03-25T05:35:53;8.30;;;4.30;;
75218;SDS011;63801;49.414;19.474;2023-03-25T05:37:54;11.13;;;5.30;;
75218;SDS011;63801;49.414;19.474;2023-03-25T05:39:55;9.85;;;5.47;;
75218;SDS011;63801;49.414;19.474;2023-03-25T05:41:56;11.25;;;5.72;;
75218;SDS011;63801;49.414;19.474;2023-03-25T05:44:01;11.70;;;6.00;;
75218;SDS011;63801;49.414;19.474;2023-03-25T05:46:02;11.00;;;6.15;;
75218;SDS011;63801;49.414;19.474;2023-03-25T05:48:04;9.55;;;5.65;;
75218;SDS011;63801;49.414;19.474;2023-03-25T05:50:04;9.63;;;5.68;;
75218;SDS011;63801;49.414;19.474;2023-03-25T05:52:05;12.15;;;5.90;;
75218;SDS011;63801;49.414;19.474;2023-03-25T05:54:08;9.43;;;5.63;;
75218;SDS011;63801;49.414;19.474;2023-03-25T05:56:10;10.23;;;5.20;;
75218;SDS011;63801;49.414;19.474;2023-03-25T05:58:10;9.73;;;5.13;;
75218;SDS011;63801;49.414;19.474;2023-03-25T06:00:11;12.52;;;5.30;;
75218;SDS011;63801;49.414;19.474;2023-03-25T06:02:15;10.65;;;5.28;;
75218;SDS011;63801;49.414;19.474;2023-03-25T06:04:16;11.25;;;5.35;;
75218;SDS011;63801;49.414;19.474;2023-03-25T06:06:16;10.70;;;5.78;;
75218;SDS011;63801;49.414;19.474;2023-03-25T06:08:19;8.07;;;4.20;;
75218;SDS011;63801;49.414;19.474;2023-03-25T06:10:25;8.45;;;4.90;;
75218;SDS011;63801;49.414;19.474;2023-03-25T06:12:25;9.40;;;4.95;;
75218;SDS011;63801;49.414;19.474;2023-03-25T06:14:26;10.55;;;5.05;;
75218;SDS011;63801;49.414;19.474;2023-03-25T06:16:26;7.90;;;4.85;;
75218;SDS011;63801;49.414;19.474;2023-03-25T06:18:28;8.52;;;5.15;;
75218;SDS011;63801;49.414;19.474;2023-03-25T06:20:29;10.93;;;5.40;;
75218;SDS011;63801;49.414;19.474;2023-03-25T06:22:29;10.43;;;5.55;;
75218;SDS011;63801;49.414;19.474;2023-03-25T06:24:32;9.75;;;5.50;;
75218;SDS011;63801;49.414;19.474;2023-03-25T06:26:33;10.10;;;5.53;;
75218;SDS011;63801;49.414;19.474;2023-03-25T06:28:33;8.25;;;5.30;;
75218;SDS011;63801;49.414;19.474;2023-03-25T06:30:34;10.35;;;5.68;;
75218;SDS011;63801;49.414;19.474;2023-03-25T06:32:34;10.52;;;5.45;;
75218;SDS011;63801;49.414;19.474;2023-03-25T06:34:35;9.98;;;5.32;;
75218;SDS011;63801;49.414;19.474;2023-03-25T06:36:36;10.70;;;5.57;;
75218;SDS011;63801;49.414;19.474;2023-03-25T06:38:37;10.80;;;5.45;;
75218;SDS011;63801;49.414;19.474;2023-03-25T06:40:38;9.65;;;5.60;;
75218;SDS011;63801;49.414;19.474;2023-03-25T06:42:38;10.43;;;5.25;;
75218;SDS011;63801;49.414;19.474;2023-03-25T06:44:40;9.68;;;5.05;;
75218;SDS011;63801;49.414;19.474;2023-03-25T06:46:41;11.63;;;5.32;;
75218;SDS011;63801;49.414;19.474;2023-03-25T06:48:42;10.95;;;5.30;;
75218;SDS011;63801;49.414;19.474;2023-03-25T06:50:42;14.55;;;9.25;;
75218;SDS011;63801;49.414;19.474;2023-03-25T06:52:44;8.27;;;4.63;;
75218;SDS011;63801;49.414;19.474;2023-03-25T06:54:44;11.48;;;6.90;;
75218;SDS011;63801;49.414;19.474;2023-03-25T06:56:45;11.80;;;5.47;;
75218;SDS011;63801;49.414;19.474;2023-03-25T06:58:45;11.00;;;5.40;;
75218;SDS011;63801;49.414;19.474;2023-03-25T07:00:45;12.75;;;5.75;;
75218;SDS011;63801;49.414;19.474;2023-03-25T07:02:46;11.20;;;6.53;;
75218;SDS011;63801;49.414;19.474;2023-03-25T07:04:46;12.40;;;6.10;;
75218;SDS011;63801;49.414;19.474;2023-03-25T07:06:46;9.65;;;6.00;;
75218;SDS011;63801;49.414;19.474;2023-03-25T07:08:47;14.45;;;7.95;;
75218;SDS011;63801;49.414;19.474;2023-03-25T07:10:48;15.50;;;8.35;;
75218;SDS011;63801;49.414;19.474;2023-03-25T07:12:48;11.55;;;6.97;;
75218;SDS011;63801;49.414;19.474;2023-03-25T07:14:52;13.73;;;9.43;;
75218;SDS011;63801;49.414;19.474;2023-03-25T07:16:54;12.80;;;7.97;;
75218;SDS011;63801;49.414;19.474;2023-03-25T07:18:55;10.15;;;5.80;;
75218;SDS011;63801;49.414;19.474;2023-03-25T07:20:56;12.55;;;7.70;;
75218;SDS011;63801;49.414;19.474;2023-03-25T07:22:56;9.15;;;6.55;;
75218;SDS011;63801;49.414;19.474;2023-03-25T07:24:56;11.82;;;6.00;;
75218;SDS011;63801;49.414;19.474;2023-03-25T07:26:57;12.90;;;5.50;;
75218;SDS011;63801;49.414;19.474;2023-03-25T07:28:57;10.93;;;6.18;;
75218;SDS011;63801;49.414;19.474;2023-03-25T07:30:58;8.27;;;4.70;;
75218;SDS011;63801;49.414;19.474;2023-03-25T07:32:58;9.77;;;5.10;;
75218;SDS011;63801;49.414;19.474;2023-03-25T07:34:59;8.48;;;4.78;;
75218;SDS011;63801;49.414;19.474;2023-03-25T07:36:59;11.82;;;7.03;;
75218;SDS011;63801;49.414;19.474;2023-03-25T07:38:59;11.63;;;6.88;;
75218;SDS011;63801;49.414;19.474;2023-03-25T07:41:03;10.80;;;5.32;;
75218;SDS011;63801;49.414;19.474;2023-03-25T07:43:07;9.88;;;5.35;;
75218;SDS011;63801;49.414;19.474;2023-03-25T07:45:08;9.38;;;5.18;;
75218;SDS011;63801;49.414;19.474;2023-03-25T07:47:08;8.18;;;4.95;;
75218;SDS011;63801;49.414;19.474;2023-03-25T07:49:09;11.98;;;5.13;;
75218;SDS011;63801;49.414;19.474;2023-03-25T07:51:09;11.00;;;5.53;;
75218;SDS011;63801;49.414;19.474;2023-03-25T07:53:10;8.30;;;4.65;;
75218;SDS011;63801;49.414;19.474;2023-03-25T07:55:10;10.93;;;5.25;;
75218;SDS011;63801;49.414;19.474;2023-03-25T07:57:11;17.95;;;6.47;;
75218;SDS011;63801;49.414;19.474;2023-03-25T07:59:12;28.58;;;15.23;;
75218;SDS011;63801;49.414;19.474;2023-03-25T08:01:12;10.10;;;3.97;;
75218;SDS011;63801;49.414;19.474;2023-03-25T08:03:13;13.98;;;7.18;;
75218;SDS011;63801;49.414;19.474;2023-03-25T08:05:14;13.18;;;4.70;;
75218;SDS011;63801;49.414;19.474;2023-03-25T08:07:20;19.33;;;12.35;;
75218;SDS011;63801;49.414;19.474;2023-03-25T08:09:20;8.70;;;4.70;;
75218;SDS011;63801;49.414;19.474;2023-03-25T08:11:20;10.93;;;4.60;;
75218;SDS011;63801;49.414;19.474;2023-03-25T08:13:21;7.63;;;4.38;;
75218;SDS011;63801;49.414;19.474;2023-03-25T08:15:21;13.10;;;7.10;;
75218;SDS011;63801;49.414;19.474;2023-03-25T08:17:23;7.43;;;2.67;;
75218;SDS011;63801;49.414;19.474;2023-03-25T08:19:24;6.53;;;3.50;;
75218;SDS011;63801;49.414;19.474;2023-03-25T08:21:24;8.73;;;4.10;;
75218;SDS011;63801;49.414;19.474;2023-03-25T08:23:26;6.53;;;2.80;;
75218;SDS011;63801;49.414;19.474;2023-03-25T08:25:26;42.95;;;21.23;;
75218;SDS011;63801;49.414;19.474;2023-03-25T08:27:26;13.77;;;6.15;;
75218;SDS011;63801;49.414;19.474;2023-03-25T08:29:27;24.40;;;12.45;;
75218;SDS011;63801;49.414;19.474;2023-03-25T08:31:29;8.82;;;4.25;;
75218;SDS011;63801;49.414;19.474;2023-03-25T08:33:34;27.52;;;10.80;;
75218;SDS011;63801;49.414;19.474;2023-03-25T08:35:39;4.43;;;2.35;;
75218;SDS011;63801;49.414;19.474;2023-03-25T08:37:40;7.28;;;2.70;;
75218;SDS011;63801;49.414;19.474;2023-03-25T08:39:40;6.60;;;2.50;;
75218;SDS011;63801;49.414;19.474;2023-03-25T08:41:44;6.85;;;2.55;;
75218;SDS011;63801;49.414;19.474;2023-03-25T08:43:44;6.53;;;2.25;;
75218;SDS011;63801;49.414;19.474;2023-03-25T08:45:44;4.93;;;2.20;;
75218;SDS011;63801;49.414;19.474;2023-03-25T08:47:45;6.00;;;2.30;;
75218;SDS011;63801;49.414;19.474;2023-03-25T08:49:45;7.45;;;3.30;;
75218;SDS011;63801;49.414;19.474;2023-03-25T08:51:46;4.30;;;1.85;;
75218;SDS011;63801;49.414;19.474;2023-03-25T08:53:46;7.07;;;3.13;;
75218;SDS011;63801;49.414;19.474;2023-03-25T08:55:49;11.30;;;3.95;;
75218;SDS011;63801;49.414;19.474;2023-03-25T08:57:51;4.38;;;2.13;;
75218;SDS011;63801;49.414;19.474;2023-03-25T08:59:52;5.80;;;2.15;;
75218;SDS011;63801;49.414;19.474;2023-03-25T09:01:52;7.65;;;3.67;;
75218;SDS011;63801;49.414;19.474;2023-03-25T09:03:53;7.80;;;3.33;;
75218;SDS011;63801;49.414;19.474;2023-03-25T09:05:54;42.25;;;13.93;;
75218;SDS011;63801;49.414;19.474;2023-03-25T09:07:55;19.15;;;5.90;;
75218;SDS011;63801;49.414;19.474;2023-03-25T09:09:55;9.60;;;2.60;;
75218;SDS011;63801;49.414;19.474;2023-03-25T09:11:55;7.70;;;2.70;;
75218;SDS011;63801;49.414;19.474;2023-03-25T09:13:56;5.07;;;2.38;;
75218;SDS011;63801;49.414;19.474;2023-03-25T09:15:57;6.70;;;2.78;;
75218;SDS011;63801;49.414;19.474;2023-03-25T09:17:58;7.18;;;2.20;;
75218;SDS011;63801;49.414;19.474;2023-03-25T09:19:58;7.47;;;3.53;;
75218;SDS011;63801;49.414;19.474;2023-03-25T09:21:58;11.00;;;4.60;;
75218;SDS011;63801;49.414;19.474;2023-03-25T09:23:58;6.13;;;2.55;;
75218;SDS011;63801;49.414;19.474;2023-03-25T09:26:00;7.30;;;2.05;;
75218;SDS011;63801;49.414;19.474;2023-03-25T09:28:02;4.93;;;2.00;;
75218;SDS011;63801;49.414;19.474;2023-03-25T09:30:03;5.80;;;1.95;;
75218;SDS011;63801;49.414;19.474;2023-03-25T09:32:04;8.55;;;2.40;;
75218;SDS011;63801;49.414;19.474;2023-03-25T09:34:05;6.97;;;2.20;;
75218;SDS011;63801;49.414;19.474;2023-03-25T09:36:06;6.43;;;2.95;;
75218;SDS011;63801;49.414;19.474;2023-03-25T09:38:07;7.47;;;2.63;;
75218;SDS011;63801;49.414;19.474;2023-03-25T09:40:09;12.23;;;3.90;;
75218;SDS011;63801;49.414;19.474;2023-03-25T09:46:41;9.15;;;2.20;;
75218;SDS011;63801;49.414;19.474;2023-03-25T09:48:45;9.00;;;3.63;;
75218;SDS011;63801;49.414;19.474;2023-03-25T09:50:47;5.40;;;2.38;;
75218;SDS011;63801;49.414;19.474;2023-03-25T09:52:50;7.35;;;2.20;;
75218;SDS011;63801;49.414;19.474;2023-03-25T09:55:12;20.05;;;3.65;;
75218;SDS011;63801;49.414;19.474;2023-03-25T09:57:21;19.67;;;6.80;;
75218;SDS011;63801;49.414;19.474;2023-03-25T09:59:42;19.67;;;5.13;;
75218;SDS011;63801;49.414;19.474;2023-03-25T10:01:54;11.40;;;4.35;;
75218;SDS011;63801;49.414;19.474;2023-03-25T10:06:31;7.57;;;2.38;;
75218;SDS011;63801;49.414;19.474;2023-03-25T10:11:03;12.80;;;2.92;;
75218;SDS011;63801;49.414;19.474;2023-03-25T10:15:48;3.05;;;1.67;;
75218;SDS011;63801;49.414;19.474;2023-03-25T10:25:31;7.93;;;2.08;;
75218;SDS011;63801;49.414;19.474;2023-03-25T10:27:44;10.00;;;2.80;;
75218;SDS011;63801;49.414;19.474;2023-03-25T10:32:28;15.23;;;5.73;;
75218;SDS011;63801;49.414;19.474;2023-03-25T10:34:38;7.28;;;3.10;;
75218;SDS011;63801;49.414;19.474;2023-03-25T10:36:46;5.28;;;1.75;;
75218;SDS011;63801;49.414;19.474;2023-03-25T10:38:54;5.68;;;2.50;;
75218;SDS011;63801;49.414;19.474;2023-03-25T10:41:02;5.25;;;2.20;;
75218;SDS011;63801;49.414;19.474;2023-03-25T10:43:14;8.15;;;2.72;;
75218;SDS011;63801;49.414;19.474;2023-03-25T10:45:46;5.10;;;1.98;;
75218;SDS011;63801;49.414;19.474;2023-03-25T10:47:48;7.13;;;2.95;;
75218;SDS011;63801;49.414;19.474;2023-03-25T10:50:00;7.38;;;3.28;;
75218;SDS011;63801;49.414;19.474;2023-03-25T10:52:01;15.25;;;5.68;;
75218;SDS011;63801;49.414;19.474;2023-03-25T10:54:03;8.50;;;3.20;;
75218;SDS011;63801;49.414;19.474;2023-03-25T10:56:04;6.13;;;3.03;;
75218;SDS011;63801;49.414;19.474;2023-03-25T10:58:09;3.75;;;1.83;;
75218;SDS011;63801;49.414;19.474;2023-03-25T11:00:16;8.02;;;1.95;;
75218;SDS011;63801;49.414;19.474;2023-03-25T11:02:18;4.65;;;2.05;;
75218;SDS011;63801;49.414;19.474;2023-03-25T11:04:30;5.88;;;2.80;;
75218;SDS011;63801;49.414;19.474;2023-03-25T11:06:35;10.82;;;2.75;;
75218;SDS011;63801;49.414;19.474;2023-03-25T11:08:54;7.18;;;2.30;;
75218;SDS011;63801;49.414;19.474;2023-03-25T11:10:56;7.43;;;2.22;;
75218;SDS011;63801;49.414;19.474;2023-03-25T11:12:59;5.68;;;1.80;;
75218;SDS011;63801;49.414;19.474;2023-03-25T11:15:06;5.63;;;1.90;;
75218;SDS011;63801;49.414;19.474;2023-03-25T11:17:09;5.90;;;1.98;;
75218;SDS011;63801;49.414;19.474;2023-03-25T11:19:17;4.70;;;1.60;;
75218;SDS011;63801;49.414;19.474;2023-03-25T11:21:23;5.68;;;1.67;;
75218;SDS011;63801;49.414;19.474;2023-03-25T11:23:24;7.50;;;1.95;;
75218;SDS011;63801;49.414;19.474;2023-03-25T11:25:30;10.90;;;3.25;;
75218;SDS011;63801;49.414;19.474;2023-03-25T11:27:42;7.28;;;2.50;;
75218;SDS011;63801;49.414;19.474;2023-03-25T11:29:52;10.50;;;3.20;;
75218;SDS011;63801;49.414;19.474;2023-03-25T11:31:57;8.82;;;3.65;;
75218;SDS011;63801;49.414;19.474;2023-03-25T11:36:19;9.15;;;2.10;;
75218;SDS011;63801;49.414;19.474;2023-03-25T11:38:23;10.65;;;2.70;;
75218;SDS011;63801;49.414;19.474;2023-03-25T11:40:31;5.28;;;2.03;;
75218;SDS011;63801;49.414;19.474;2023-03-25T11:42:40;7.10;;;1.92;;
75218;SDS011;63801;49.414;19.474;2023-03-25T11:44:51;9.57;;;2.30;;
75218;SDS011;63801;49.414;19.474;2023-03-25T11:47:01;6.32;;;1.80;;
75218;SDS011;63801;49.414;19.474;2023-03-25T11:49:07;5.10;;;1.88;;
75218;SDS011;63801;49.414;19.474;2023-03-25T11:51:31;7.10;;;2.90;;
75218;SDS011;63801;49.414;19.474;2023-03-25T11:53:31;7.85;;;3.08;;
75218;SDS011;63801;49.414;19.474;2023-03-25T11:55:52;6.03;;;2.33;;
75218;SDS011;63801;49.414;19.474;2023-03-25T11:57:55;7.30;;;2.70;;
75218;SDS011;63801;49.414;19.474;2023-03-25T12:00:03;7.53;;;2.50;;
75218;SDS011;63801;49.414;19.474;2023-03-25T12:04:32;8.35;;;2.65;;
75218;SDS011;63801;49.414;19.474;2023-03-25T12:06:32;4.80;;;1.65;;
75218;SDS011;63801;49.414;19.474;2023-03-25T12:08:43;7.10;;;2.03;;
75218;SDS011;63801;49.414;19.474;2023-03-25T12:10:59;5.15;;;1.58;;
75218;SDS011;63801;49.414;19.474;2023-03-25T12:22:26;4.70;;;1.83;;
75218;SDS011;63801;49.414;19.474;2023-03-25T12:29:44;14.75;;;3.90;;
75218;SDS011;63801;49.414;19.474;2023-03-25T12:31:57;14.60;;;4.57;;
75218;SDS011;63801;49.414;19.474;2023-03-25T12:36:27;3.17;;;1.20;;
75218;SDS011;63801;49.414;19.474;2023-03-25T12:41:20;2.72;;;0.90;;
75218;SDS011;63801;49.414;19.474;2023-03-25T12:46:00;0.82;;;0.43;;
75218;SDS011;63801;49.414;19.474;2023-03-25T12:57:16;11.45;;;3.97;;
75218;SDS011;63801;49.414;19.474;2023-03-25T13:06:38;4.43;;;1.85;;
75218;SDS011;63801;49.414;19.474;2023-03-25T13:11:01;4.40;;;1.40;;
75218;SDS011;63801;49.414;19.474;2023-03-25T13:13:15;6.22;;;1.70;;
75218;SDS011;63801;49.414;19.474;2023-03-25T13:17:26;3.97;;;1.70;;
75218;SDS011;63801;49.414;19.474;2023-03-25T13:19:30;4.22;;;1.90;;
75218;SDS011;63801;49.414;19.474;2023-03-25T13:21:35;4.95;;;1.60;;
75218;SDS011;63801;49.414;19.474;2023-03-25T13:23:41;6.15;;;1.25;;
75218;SDS011;63801;49.414;19.474;2023-03-25T13:25:49;3.67;;;1.30;;
75218;SDS011;63801;49.414;19.474;2023-03-25T13:27:54;4.10;;;1.20;;
75218;SDS011;63801;49.414;19.474;2023-03-25T13:29:57;8.23;;;3.97;;
75218;SDS011;63801;49.414;19.474;2023-03-25T13:32:02;8.85;;;3.15;;
75218;SDS011;63801;49.414;19.474;2023-03-25T13:36:24;10.38;;;4.85;;
75218;SDS011;63801;49.414;19.474;2023-03-25T13:38:30;25.55;;;10.80;;
75218;SDS011;63801;49.414;19.474;2023-03-25T13:40:35;9.70;;;4.30;;
75218;SDS011;63801;49.414;19.474;2023-03-25T13:42:57;3.15;;;1.60;;
75218;SDS011;63801;49.414;19.474;2023-03-25T13:45:01;4.97;;;2.05;;
75218;SDS011;63801;49.414;19.474;2023-03-25T13:51:34;4.18;;;2.05;;
75218;SDS011;63801;49.414;19.474;2023-03-25T14:05:27;29.30;;;11.27;;
75218;SDS011;63801;49.414;19.474;2023-03-25T14:07:53;19.17;;;8.40;;
75218;SDS011;63801;49.414;19.474;2023-03-25T14:12:21;13.05;;;5.85;;
75218;SDS011;63801;49.414;19.474;2023-03-25T14:14:26;47.42;;;20.30;;
75218;SDS011;63801;49.414;19.474;2023-03-25T14:16:33;42.00;;;20.77;;
75218;SDS011;63801;49.414;19.474;2023-03-25T14:18:41;16.88;;;8.25;;
75218;SDS011;63801;49.414;19.474;2023-03-25T14:20:43;25.23;;;11.52;;
75218;SDS011;63801;49.414;19.474;2023-03-25T14:22:44;18.85;;;8.52;;
75218;SDS011;63801;49.414;19.474;2023-03-25T14:24:45;20.42;;;10.70;;